createdAt,value
2022-08-16T00:01:21.179Z,1.80
2022-08-16T00:03:50.678Z,2.13
2022-08-16T00:06:17.605Z,1.70
2022-08-16T00:08:45.823Z,1.70
2022-08-16T00:11:15.419Z,2.13
2022-08-16T00:13:53.389Z,2.30
2022-08-16T00:17:05.505Z,2.07
2022-08-16T00:19:20.161Z,1.73
2022-08-16T00:21:53.151Z,1.93
2022-08-16T00:24:30.907Z,2.20
2022-08-16T00:26:59.343Z,1.90
2022-08-16T00:29:26.573Z,1.97
2022-08-16T00:32:00.683Z,2.07
2022-08-16T00:34:43.359Z,1.80
2022-08-16T00:37:20.344Z,1.93
2022-08-16T00:39:47.937Z,2.07
2022-08-16T00:42:30.483Z,1.80
2022-08-16T00:45:14.580Z,1.80
2022-08-16T00:47:49.602Z,1.80
2022-08-16T00:50:22.145Z,1.73
2022-08-16T00:53:06.072Z,1.30
2022-08-16T00:55:37.730Z,2.10
2022-08-16T00:58:13.142Z,1.90
2022-08-16T01:00:43.831Z,1.93
2022-08-16T01:03:12.806Z,1.53
2022-08-16T01:05:39.952Z,1.57
2022-08-16T01:08:35.804Z,1.83
2022-08-16T01:10:55.305Z,1.33
2022-08-16T01:13:31.438Z,2.00
2022-08-16T01:16:10.118Z,1.90
2022-08-16T01:18:45.153Z,1.73
2022-08-16T01:21:34.862Z,1.73
2022-08-16T01:24:52.120Z,1.80
2022-08-16T01:27:34.518Z,1.83
2022-08-16T01:30:20.260Z,1.80
2022-08-16T01:33:01.592Z,2.00
2022-08-16T01:35:52.695Z,1.80
2022-08-16T01:38:30.308Z,1.97
2022-08-16T01:41:09.744Z,2.03
2022-08-16T01:43:38.290Z,1.90
2022-08-16T01:46:38.256Z,2.20
2022-08-16T01:49:18.653Z,2.00
2022-08-16T01:51:47.287Z,1.90
2022-08-16T01:54:15.353Z,1.77
2022-08-16T01:56:42.459Z,2.20
2022-08-16T01:59:16.027Z,1.80
2022-08-16T02:01:49.783Z,2.33
2022-08-16T02:04:48.651Z,2.10
2022-08-16T02:07:11.297Z,1.97
2022-08-16T02:09:38.905Z,2.10
2022-08-16T02:12:42.123Z,2.00
2022-08-16T02:14:59.486Z,2.03
2022-08-16T02:17:29.432Z,2.07
2022-08-16T02:19:59.188Z,2.00
2022-08-16T02:22:34.623Z,1.83
2022-08-16T02:25:11.062Z,2.20
2022-08-16T02:27:41.297Z,2.10
2022-08-16T02:30:37.402Z,2.00
2022-08-16T02:32:59.984Z,1.93
2022-08-16T02:35:27.255Z,2.07
2022-08-16T02:37:56.109Z,1.90
2022-08-16T02:40:23.575Z,2.10
2022-08-16T02:42:53.013Z,2.10
2022-08-16T02:45:24.745Z,2.00
2022-08-16T02:48:01.358Z,2.07
2022-08-16T02:50:54.729Z,2.30
2022-08-16T02:53:28.832Z,1.73
2022-08-16T02:55:56.646Z,2.10
2022-08-16T02:58:25.132Z,2.30
2022-08-16T03:00:55.890Z,1.90
2022-08-16T03:03:25.046Z,1.90
2022-08-16T03:05:53.425Z,1.60
2022-08-16T03:08:50.921Z,2.20
2022-08-16T03:11:17.949Z,1.97
2022-08-16T03:13:55.754Z,2.10
2022-08-16T03:16:37.861Z,1.97
2022-08-16T03:19:06.803Z,2.10
2022-08-16T03:21:37.491Z,2.10
2022-08-16T03:24:28.726Z,2.00
2022-08-16T03:26:59.966Z,2.03
2022-08-16T03:29:32.130Z,2.10
2022-08-16T03:32:01.496Z,2.10
2022-08-16T03:34:29.630Z,2.13
2022-08-16T03:36:56.607Z,1.97
2022-08-16T03:39:23.529Z,2.10
2022-08-16T03:41:51.416Z,2.10
2022-08-16T03:44:44.121Z,2.50
2022-08-16T03:47:19.314Z,2.10
2022-08-16T03:49:51.901Z,2.10
2022-08-16T03:52:20.410Z,2.00
2022-08-16T03:54:53.673Z,1.80
2022-08-16T03:57:31.430Z,2.43
2022-08-16T04:00:35.204Z,1.87
2022-08-16T04:03:02.578Z,2.00
2022-08-16T04:05:33.346Z,2.20
2022-08-16T04:08:01.568Z,2.10
2022-08-16T04:10:49.344Z,2.20
2022-08-16T04:13:20.753Z,2.20
2022-08-16T04:16:07.678Z,2.20
2022-08-16T04:18:39.099Z,2.07
2022-08-16T04:21:06.138Z,2.07
2022-08-16T04:23:33.159Z,2.10
2022-08-16T04:26:02.075Z,2.20
2022-08-16T04:28:53.427Z,2.13
2022-08-16T04:31:17.007Z,2.10
2022-08-16T04:33:50.977Z,2.27
2022-08-16T04:36:20.161Z,2.20
2022-08-16T04:38:50.022Z,2.03
2022-08-16T04:41:18.866Z,2.20
2022-08-16T04:44:00.109Z,2.70
2022-08-16T04:47:01.055Z,2.00
2022-08-16T04:49:13.846Z,2.30
2022-08-16T04:51:42.631Z,2.40
2022-08-16T04:54:09.595Z,2.20
2022-08-16T04:56:36.481Z,2.27
2022-08-16T04:59:13.208Z,2.10
2022-08-16T05:01:58.739Z,2.10
2022-08-16T05:04:26.352Z,2.33
2022-08-16T05:06:56.987Z,2.03
2022-08-16T05:09:25.917Z,2.13
2022-08-16T05:11:57.365Z,2.40
2022-08-16T05:14:42.158Z,2.20
2022-08-16T05:17:11.783Z,2.20
2022-08-16T05:19:39.375Z,1.97
2022-08-16T05:22:17.473Z,2.30
2022-08-16T05:24:46.307Z,2.37
2022-08-16T05:27:13.139Z,2.03
2022-08-16T05:30:00.028Z,2.23
2022-08-16T05:32:33.884Z,2.00
2022-08-16T05:35:10.907Z,2.10
2022-08-16T05:37:40.174Z,2.50
2022-08-16T05:40:08.212Z,2.20
2022-08-16T05:42:35.772Z,2.10
2022-08-16T05:45:06.705Z,2.20
2022-08-16T05:47:34.176Z,2.20
2022-08-16T05:50:10.696Z,2.37
2022-08-16T05:52:46.290Z,2.80
2022-08-16T05:55:13.660Z,2.33
2022-08-16T05:57:46.466Z,2.27
2022-08-16T06:00:22.698Z,2.17
2022-08-16T06:02:50.196Z,2.20
2022-08-16T06:05:17.388Z,2.40
2022-08-16T06:07:45.611Z,2.03
2022-08-16T06:10:32.456Z,2.40
2022-08-16T06:13:01.796Z,1.90
2022-08-16T06:15:28.583Z,2.10
2022-08-16T06:17:59.213Z,2.33
2022-08-16T06:20:35.613Z,2.20
2022-08-16T06:23:16.856Z,2.47
2022-08-16T06:25:44.588Z,2.20
2022-08-16T06:28:35.742Z,2.50
2022-08-16T06:31:04.728Z,2.73
2022-08-16T06:33:41.410Z,2.30
2022-08-16T06:36:11.811Z,2.53
2022-08-16T06:38:55.818Z,2.33
2022-08-16T06:41:23.611Z,2.23
2022-08-16T06:43:54.446Z,2.20
2022-08-16T06:46:34.643Z,2.30
2022-08-16T06:49:30.142Z,2.80
2022-08-16T06:52:02.640Z,2.53
2022-08-16T06:54:30.080Z,2.90
2022-08-16T06:56:59.776Z,2.60
2022-08-16T06:59:26.677Z,2.57
2022-08-16T07:01:58.258Z,2.83
2022-08-16T07:04:33.180Z,2.40
2022-08-16T07:07:06.251Z,2.50
2022-08-16T07:09:38.344Z,2.70
2022-08-16T07:12:06.185Z,2.90
2022-08-16T07:14:33.482Z,2.97
2022-08-16T07:17:02.361Z,3.37
2022-08-16T07:19:33.725Z,3.57
2022-08-16T07:22:37.907Z,2.90
2022-08-16T07:25:11.759Z,3.17
2022-08-16T07:27:39.152Z,3.00
2022-08-16T07:30:39.173Z,2.93
2022-08-16T07:32:55.771Z,3.07
2022-08-16T07:35:22.686Z,2.93
2022-08-16T07:37:49.826Z,3.40
2022-08-16T07:40:17.621Z,3.17
2022-08-16T07:42:44.544Z,3.30
2022-08-16T07:45:13.528Z,3.17
2022-08-16T07:47:44.457Z,3.43
2022-08-16T07:50:57.138Z,3.10
2022-08-16T07:53:01.943Z,2.73
2022-08-16T07:55:29.005Z,3.00
2022-08-16T07:58:18.370Z,3.30
2022-08-16T08:01:01.616Z,3.17
2022-08-16T08:03:39.357Z,3.20
2022-08-16T08:06:10.483Z,3.27
2022-08-16T08:08:50.747Z,3.63
2022-08-16T08:11:19.403Z,3.30
2022-08-16T08:13:48.372Z,3.00
2022-08-16T08:16:19.009Z,3.50
2022-08-16T08:18:50.447Z,3.23
2022-08-16T08:21:26.226Z,3.20
2022-08-16T08:24:12.399Z,3.53
2022-08-16T08:26:42.790Z,3.20
2022-08-16T08:29:10.953Z,3.57
2022-08-16T08:31:42.184Z,3.80
2022-08-16T08:34:09.067Z,2.80
2022-08-16T08:36:40.129Z,3.30
2022-08-16T08:39:12.931Z,3.30
2022-08-16T08:41:42.254Z,3.50
2022-08-16T08:44:28.970Z,3.30
2022-08-16T08:47:00.580Z,3.30
2022-08-16T08:49:46.501Z,3.87
2022-08-16T08:52:35.452Z,3.73
2022-08-16T08:55:10.755Z,3.73
2022-08-16T08:57:47.702Z,3.80
2022-08-16T09:00:16.003Z,3.17
2022-08-16T09:02:51.843Z,3.43
2022-08-16T09:05:20.295Z,3.60
2022-08-16T09:08:00.717Z,3.40
2022-08-16T09:10:29.998Z,4.10
2022-08-16T09:12:58.060Z,3.60
2022-08-16T09:15:32.784Z,3.30
2022-08-16T09:18:02.100Z,3.90
2022-08-16T09:20:59.140Z,3.20
2022-08-16T09:23:28.783Z,3.50
2022-08-16T09:25:57.406Z,3.90
2022-08-16T09:29:15.504Z,3.83
2022-08-16T09:31:12.508Z,3.70
2022-08-16T09:33:39.915Z,3.37
2022-08-16T09:36:11.953Z,3.63
2022-08-16T09:38:59.621Z,3.50
2022-08-16T09:41:28.396Z,3.70
2022-08-16T09:43:59.687Z,3.57
2022-08-16T09:46:45.247Z,3.30
2022-08-16T09:49:24.773Z,3.63
2022-08-16T09:52:05.005Z,3.33
2022-08-16T09:54:33.083Z,3.30
2022-08-16T09:57:00.258Z,3.30
2022-08-16T09:59:30.609Z,3.63
2022-08-16T10:01:58.896Z,3.60
2022-08-16T10:04:30.244Z,3.13
2022-08-16T10:07:02.564Z,3.50
2022-08-16T10:09:53.833Z,3.03
2022-08-16T10:12:45.281Z,3.47
2022-08-16T10:15:15.490Z,3.67
2022-08-16T10:17:43.073Z,3.17
2022-08-16T10:20:11.503Z,3.67
2022-08-16T10:22:46.051Z,3.50
2022-08-16T10:27:00.535Z,3.47
2022-08-16T10:28:28.020Z,3.07
2022-08-16T10:30:56.510Z,3.20
2022-08-16T10:33:29.317Z,3.07
2022-08-16T10:35:58.682Z,3.60
2022-08-16T10:38:30.151Z,3.40
2022-08-16T10:41:00.443Z,3.47
2022-08-16T10:43:27.652Z,3.17
2022-08-16T10:46:00.736Z,3.20
2022-08-16T10:48:28.761Z,3.53
2022-08-16T10:51:00.055Z,3.47
2022-08-16T10:53:32.937Z,3.37
2022-08-16T10:56:52.240Z,3.10
2022-08-16T10:59:32.716Z,3.00
2022-08-16T11:02:21.871Z,2.87
2022-08-16T11:12:57.052Z,3.10
2022-08-16T11:15:26.295Z,2.60
2022-08-16T11:20:49.394Z,3.00
2022-08-16T11:23:17.493Z,3.17
2022-08-16T11:26:07.541Z,3.10
2022-08-16T11:29:12.311Z,2.60
2022-08-16T11:31:20.248Z,2.43
2022-08-16T11:33:55.646Z,2.73
2022-08-16T11:36:27.652Z,2.70
2022-08-16T11:39:01.034Z,2.83
2022-08-16T11:41:29.476Z,3.30
2022-08-16T11:43:57.818Z,2.57
2022-08-16T11:46:42.819Z,2.77
2022-08-16T11:49:13.963Z,3.00
2022-08-16T11:51:44.123Z,3.20
2022-08-16T11:54:21.387Z,3.00
2022-08-16T11:56:52.807Z,2.43
2022-08-16T11:59:25.495Z,2.40
2022-08-16T12:02:00.225Z,2.53
2022-08-16T12:04:51.637Z,2.50
2022-08-16T12:07:19.512Z,2.40
2022-08-16T12:09:46.293Z,2.40
2022-08-16T12:12:15.456Z,2.90
2022-08-16T12:14:45.796Z,3.00
2022-08-16T12:17:14.413Z,2.40
2022-08-16T12:19:42.655Z,2.80
2022-08-16T12:22:18.882Z,2.67
2022-08-16T12:24:52.204Z,2.40
2022-08-16T12:27:23.222Z,2.67
2022-08-16T12:29:54.785Z,2.23
2022-08-16T12:32:41.583Z,2.43
2022-08-16T12:35:12.250Z,2.63
2022-08-16T12:37:40.017Z,2.70
2022-08-16T12:40:24.186Z,2.70
2022-08-16T12:42:58.625Z,2.87
2022-08-16T12:45:26.640Z,2.73
2022-08-16T12:48:32.994Z,2.40
2022-08-16T12:51:01.260Z,2.80
2022-08-16T12:53:31.680Z,2.67
2022-08-16T12:55:59.232Z,2.63
2022-08-16T12:58:49.664Z,3.27
2022-08-16T13:01:15.269Z,2.43
2022-08-16T13:03:45.957Z,2.60
2022-08-16T13:06:19.953Z,2.93
2022-08-16T13:08:47.224Z,2.73
2022-08-16T13:11:18.154Z,2.73
2022-08-16T13:13:44.960Z,2.70
2022-08-16T13:16:15.933Z,2.67
2022-08-16T13:18:52.696Z,3.20
2022-08-16T13:21:23.711Z,2.47
2022-08-16T13:23:51.221Z,2.33
2022-08-16T13:26:22.136Z,2.33
2022-08-16T13:28:49.223Z,2.57
2022-08-16T13:31:17.259Z,2.20
2022-08-16T13:33:44.141Z,2.47
2022-08-16T13:36:21.184Z,2.63
2022-08-16T13:38:55.717Z,2.70
2022-08-16T13:41:24.097Z,2.67
2022-08-16T13:43:57.909Z,2.87
2022-08-16T13:46:26.983Z,2.40
2022-08-16T13:48:53.836Z,2.70
2022-08-16T13:51:25.571Z,2.80
2022-08-16T13:53:59.370Z,2.67
2022-08-16T13:56:36.936Z,2.30
2022-08-16T13:59:06.179Z,2.30
2022-08-16T14:01:43.008Z,2.53
2022-08-16T14:04:12.343Z,2.30
2022-08-16T14:06:50.020Z,2.30
2022-08-16T14:09:16.762Z,2.40
2022-08-16T14:11:49.457Z,2.60
2022-08-16T14:14:20.046Z,2.00
2022-08-16T14:16:57.274Z,2.40
2022-08-16T14:19:27.892Z,2.60
2022-08-16T14:22:14.354Z,2.00
2022-08-16T14:24:45.150Z,2.20
2022-08-16T14:27:15.616Z,2.37
2022-08-16T14:29:43.276Z,2.23
2022-08-16T14:32:21.959Z,2.37
2022-08-16T14:34:58.948Z,2.50
2022-08-16T14:37:25.741Z,2.60
2022-08-16T14:39:54.794Z,2.43
2022-08-16T14:42:22.957Z,2.33
2022-08-16T14:44:49.959Z,2.50
2022-08-16T14:47:17.017Z,2.47
2022-08-16T14:49:44.042Z,2.00
2022-08-16T14:52:27.610Z,2.50
2022-08-16T14:55:04.835Z,2.40
2022-08-16T14:57:31.707Z,2.40
2022-08-16T15:00:05.601Z,2.30
2022-08-16T15:02:34.369Z,2.50
2022-08-16T15:05:04.338Z,2.10
2022-08-16T15:07:35.017Z,2.30
2022-08-16T15:10:04.700Z,2.30
2022-08-16T15:12:32.867Z,2.43
2022-08-16T15:15:01.572Z,2.37
2022-08-16T15:17:33.960Z,2.43
2022-08-16T15:20:08.722Z,2.50
2022-08-16T15:22:41.696Z,2.20
2022-08-16T15:25:22.075Z,2.20
2022-08-16T15:27:55.874Z,2.50
2022-08-16T15:30:57.290Z,2.37
2022-08-16T15:33:15.812Z,2.20
2022-08-16T15:35:43.597Z,2.60
2022-08-16T15:38:10.445Z,2.40
2022-08-16T15:40:59.105Z,2.77
2022-08-16T15:43:39.522Z,2.17
2022-08-16T15:46:35.521Z,2.60
2022-08-16T15:49:12.061Z,2.30
2022-08-16T15:51:39.303Z,2.10
2022-08-16T15:54:21.485Z,2.20
2022-08-16T15:56:55.421Z,2.50
2022-08-16T15:59:26.950Z,2.43
2022-08-16T16:01:55.808Z,2.37
2022-08-16T16:04:25.959Z,2.50
2022-08-16T16:06:54.901Z,2.87
2022-08-16T16:09:34.500Z,2.10
2022-08-16T16:12:21.623Z,2.00
2022-08-16T16:14:52.923Z,2.33
2022-08-16T16:17:20.001Z,2.43
2022-08-16T16:19:49.552Z,2.77
2022-08-16T16:22:20.881Z,2.23
2022-08-16T16:24:50.337Z,2.30
2022-08-16T16:27:17.641Z,2.37
2022-08-16T16:29:46.405Z,2.33
2022-08-16T16:32:17.794Z,2.80
2022-08-16T16:35:00.581Z,2.10
2022-08-16T16:37:27.358Z,2.50
2022-08-16T16:39:54.756Z,2.27
2022-08-16T16:42:29.608Z,2.30
2022-08-16T16:45:01.503Z,2.20
2022-08-16T16:47:40.650Z,2.13
2022-08-16T16:50:09.520Z,2.20
2022-08-16T16:52:43.861Z,2.07
2022-08-16T16:55:13.041Z,2.50
2022-08-16T16:58:00.462Z,1.93
2022-08-16T17:00:37.558Z,2.10
2022-08-16T17:03:05.856Z,2.20
2022-08-16T17:05:57.330Z,2.17
2022-08-16T17:08:30.644Z,2.03
2022-08-16T17:10:57.733Z,2.00
2022-08-16T17:13:24.654Z,1.87
2022-08-16T17:15:52.608Z,2.27
2022-08-16T17:19:06.467Z,2.30
2022-08-16T17:21:10.568Z,2.17
2022-08-16T17:23:58.180Z,2.20
2022-08-16T17:26:30.306Z,2.13
2022-08-16T17:29:02.207Z,2.10
2022-08-16T17:31:40.645Z,2.20
2022-08-16T17:34:29.416Z,2.37
2022-08-16T17:37:00.670Z,2.13
2022-08-16T17:39:33.314Z,2.23
2022-08-16T17:42:01.296Z,1.90
2022-08-16T17:44:29.344Z,2.33
2022-08-16T17:46:56.184Z,2.57
2022-08-16T17:49:23.088Z,2.30
2022-08-16T17:51:50.247Z,2.30
2022-08-16T17:54:29.736Z,2.30
2022-08-16T17:56:58.699Z,2.00
2022-08-16T17:59:27.979Z,2.17
2022-08-16T18:02:00.702Z,2.33
2022-08-16T18:04:49.724Z,2.47
2022-08-16T18:07:19.681Z,2.23
2022-08-16T18:09:46.462Z,2.43
2022-08-16T18:12:44.888Z,2.47
2022-08-16T18:15:03.148Z,2.60
2022-08-16T18:17:29.885Z,2.20
2022-08-16T18:19:56.696Z,2.23
2022-08-16T18:22:33.782Z,2.40
2022-08-16T18:25:01.568Z,2.50
2022-08-16T18:27:29.825Z,2.50
2022-08-16T18:29:56.651Z,2.37
2022-08-16T18:32:24.843Z,2.60
2022-08-16T18:34:54.517Z,2.10
2022-08-16T18:37:23.356Z,2.50
2022-08-16T18:39:50.397Z,2.27
2022-08-16T18:42:17.603Z,2.20
2022-08-16T18:44:44.466Z,2.17
2022-08-16T18:47:11.301Z,2.10
2022-08-16T18:49:38.250Z,2.50
2022-08-16T18:52:05.070Z,2.60
2022-08-16T18:54:32.413Z,2.07
2022-08-16T18:56:59.263Z,2.33
2022-08-16T18:59:28.680Z,2.40
2022-08-16T19:02:04.483Z,2.63
2022-08-16T19:04:47.827Z,2.30
2022-08-16T19:07:22.197Z,2.80
2022-08-16T19:09:54.572Z,2.93
2022-08-16T19:12:38.220Z,2.50
2022-08-16T19:15:13.474Z,2.80
2022-08-16T19:17:43.674Z,2.30
2022-08-16T19:20:11.435Z,2.43
2022-08-16T19:23:01.659Z,2.50
2022-08-16T19:25:47.653Z,2.27
2022-08-16T19:28:49.687Z,2.50
2022-08-16T19:31:16.381Z,2.80
2022-08-16T19:33:53.548Z,2.30
2022-08-16T19:36:31.775Z,2.50
2022-08-16T19:39:04.970Z,2.33
2022-08-16T19:41:34.545Z,2.80
2022-08-16T19:44:01.393Z,2.43
2022-08-16T19:46:28.378Z,2.50
2022-08-16T19:48:55.203Z,2.63
2022-08-16T19:51:21.945Z,2.50
2022-08-16T19:53:48.694Z,2.90
2022-08-16T19:56:15.520Z,2.40
2022-08-16T19:59:01.880Z,2.67
2022-08-16T20:01:29.106Z,2.47
2022-08-16T20:03:55.940Z,2.50
2022-08-16T20:06:35.837Z,2.40
2022-08-16T20:09:05.304Z,2.40
2022-08-16T20:11:34.669Z,2.70
2022-08-16T20:14:01.719Z,2.50
2022-08-16T20:16:29.734Z,2.70
2022-08-16T20:18:56.534Z,2.90
2022-08-16T20:21:25.088Z,2.70
2022-08-16T20:23:54.081Z,2.33
2022-08-16T20:26:28.936Z,2.73
2022-08-16T20:28:56.661Z,2.83
2022-08-16T20:31:24.120Z,3.03
2022-08-16T20:33:51.572Z,2.60
2022-08-16T20:36:18.343Z,2.77
2022-08-16T20:38:47.805Z,3.00
2022-08-16T20:41:18.753Z,2.27
2022-08-16T20:43:47.489Z,2.57
2022-08-16T20:46:14.525Z,2.77
2022-08-16T20:48:41.968Z,2.67
2022-08-16T20:51:10.744Z,2.90
2022-08-16T20:53:40.872Z,2.50
2022-08-16T20:56:07.848Z,2.70
2022-08-16T20:58:34.772Z,3.10
2022-08-16T21:01:02.325Z,2.93
2022-08-16T21:03:29.295Z,2.70
2022-08-16T21:05:57.754Z,2.60
2022-08-16T21:08:52.593Z,2.50
2022-08-16T21:11:13.417Z,2.83
2022-08-16T21:13:42.944Z,2.50
2022-08-16T21:16:10.148Z,2.87
2022-08-16T21:18:36.917Z,2.87
2022-08-16T21:21:03.743Z,3.33
2022-08-16T21:23:30.909Z,2.80
2022-08-16T21:25:59.536Z,2.47
2022-08-16T21:28:36.199Z,3.00
2022-08-16T21:31:14.460Z,2.57
2022-08-16T21:33:42.583Z,2.43
2022-08-16T21:36:10.229Z,2.70
2022-08-16T21:38:37.026Z,2.73
2022-08-16T21:41:04.931Z,2.70
2022-08-16T21:43:33.325Z,2.60
2022-08-16T21:46:01.444Z,2.33
2022-08-16T21:48:34.627Z,2.73
2022-08-16T21:51:09.813Z,2.80
2022-08-16T21:53:37.711Z,2.87
2022-08-16T21:56:05.089Z,2.80
2022-08-16T21:58:33.592Z,2.70
2022-08-16T22:01:02.387Z,2.67
2022-08-16T22:03:35.437Z,2.70
2022-08-16T22:06:13.340Z,2.50
2022-08-16T22:08:49.813Z,2.83
2022-08-16T22:11:40.840Z,3.00
2022-08-16T22:14:09.216Z,2.80
2022-08-16T22:16:37.214Z,3.03
2022-08-16T22:19:04.531Z,2.87
2022-08-16T22:21:31.555Z,2.83
2022-08-16T22:23:58.889Z,3.07
2022-08-16T22:26:32.565Z,2.90
2022-08-16T22:29:05.050Z,2.40
2022-08-16T22:31:32.342Z,2.43
2022-08-16T22:33:59.285Z,2.67
2022-08-16T22:36:28.575Z,3.10
2022-08-16T22:38:59.876Z,2.67
2022-08-16T22:41:27.682Z,2.90
2022-08-16T22:43:54.576Z,2.77
2022-08-16T22:46:21.460Z,3.10
2022-08-16T22:48:50.805Z,3.20
2022-08-16T22:51:19.824Z,2.90
2022-08-16T22:53:46.615Z,2.53
2022-08-16T22:56:13.418Z,3.47
2022-08-16T22:58:40.228Z,3.13
2022-08-16T23:01:07.953Z,3.17
2022-08-16T23:03:40.800Z,3.10
2022-08-16T23:06:07.881Z,2.77
2022-08-16T23:08:38.956Z,3.10
2022-08-16T23:11:07.501Z,3.00
2022-08-16T23:13:34.275Z,2.90
2022-08-16T23:16:11.326Z,3.07
2022-08-16T23:18:39.114Z,2.70
2022-08-16T23:21:08.101Z,2.97
2022-08-16T23:23:35.017Z,2.90
2022-08-16T23:26:02.390Z,2.80
2022-08-16T23:28:30.955Z,2.70
2022-08-16T23:30:58.741Z,2.60
2022-08-16T23:33:26.679Z,3.10
2022-08-16T23:35:55.086Z,2.57
2022-08-16T23:38:37.744Z,3.10
2022-08-16T23:41:09.356Z,2.63
2022-08-16T23:43:44.437Z,2.70
2022-08-16T23:46:16.234Z,2.47
2022-08-16T23:50:01.436Z,2.80
2022-08-16T23:51:30.934Z,2.40
2022-08-16T23:53:57.808Z,2.80
2022-08-16T23:56:25.900Z,2.70
2022-08-16T23:59:02.412Z,2.47
